createdAt,value
2018-08-18T00:04:18.767Z,3.53
2018-08-18T00:09:13.852Z,3.47
2018-08-18T00:14:10.297Z,4.20
2018-08-18T00:19:07.104Z,3.90
2018-08-18T00:24:08.014Z,3.90
2018-08-18T00:29:03.845Z,4.70
2018-08-18T00:33:58.250Z,3.43
2018-08-18T00:38:52.310Z,3.80
2018-08-18T00:43:55.373Z,4.27
2018-08-18T00:48:57.941Z,4.87
2018-08-18T00:53:53.265Z,4.20
2018-08-18T00:58:54.378Z,11.70
2018-08-18T01:03:55.360Z,4.67
2018-08-18T01:08:54.214Z,7.33
2018-08-18T01:13:48.261Z,4.30
2018-08-18T01:18:42.380Z,4.70
2018-08-18T01:23:36.959Z,5.27
2018-08-18T01:28:31.156Z,5.70
2018-08-18T01:33:26.291Z,6.10
2018-08-18T01:38:20.309Z,4.70
2018-08-18T01:43:21.985Z,5.20
2018-08-18T01:48:16.085Z,5.27
2018-08-18T01:53:09.995Z,5.47
2018-08-18T01:58:20.047Z,5.17
2018-08-18T02:03:14.776Z,4.70
2018-08-18T02:08:16.481Z,4.73
2018-08-18T02:13:18.059Z,4.40
2018-08-18T02:18:18.451Z,5.13
2018-08-18T02:23:13.935Z,5.37
2018-08-18T02:28:08.723Z,4.80
2018-08-18T02:33:03.571Z,5.70
2018-08-18T02:37:58.952Z,5.83
2018-08-18T02:42:53.520Z,6.40
2018-08-18T02:47:48.440Z,6.03
2018-08-18T02:52:43.011Z,6.50
2018-08-18T02:57:39.425Z,7.23
2018-08-18T03:02:33.349Z,6.87
2018-08-18T03:07:46.771Z,6.93
2018-08-18T03:13:03.829Z,6.10
2018-08-18T03:17:58.972Z,6.87
2018-08-18T03:22:53.390Z,7.50
2018-08-18T03:27:47.420Z,8.20
2018-08-18T03:32:42.080Z,7.33
2018-08-18T03:37:36.405Z,7.80
2018-08-18T03:42:46.560Z,8.83
2018-08-18T03:47:40.613Z,9.50
2018-08-18T03:52:35.522Z,8.90
2018-08-18T03:57:48.081Z,10.10
2018-08-18T04:02:41.816Z,9.47
2018-08-18T04:07:39.798Z,10.20
2018-08-18T04:12:41.049Z,10.53
2018-08-18T04:17:34.779Z,9.30
2018-08-18T04:22:29.010Z,9.63
2018-08-18T04:27:41.379Z,10.27
2018-08-18T04:32:48.172Z,9.37
2018-08-18T04:37:43.346Z,9.73
2018-08-18T04:42:38.271Z,9.73
2018-08-18T04:47:32.562Z,10.83
2018-08-18T04:52:27.771Z,11.23
2018-08-18T04:57:22.937Z,19.03
2018-08-18T05:02:17.587Z,9.90
2018-08-18T05:07:11.691Z,11.00
2018-08-18T05:12:08.383Z,10.03
2018-08-18T05:17:02.257Z,9.93
2018-08-18T05:21:57.694Z,9.23
2018-08-18T05:26:53.354Z,8.63
2018-08-18T05:31:47.426Z,8.40
2018-08-18T05:36:42.384Z,7.63
2018-08-18T05:41:37.827Z,8.77
2018-08-18T05:46:32.167Z,7.60
2018-08-18T05:51:26.912Z,8.13
2018-08-18T05:56:21.063Z,8.10
2018-08-18T06:01:24.374Z,8.53
2018-08-18T06:06:19.758Z,9.50
2018-08-18T06:11:14.111Z,8.80
2018-08-18T06:16:10.112Z,20.60
2018-08-18T06:21:12.595Z,8.70
2018-08-18T06:26:07.753Z,8.70
2018-08-18T06:31:04.288Z,9.77
2018-08-18T06:36:00.507Z,10.23
2018-08-18T06:40:57.870Z,9.33
2018-08-18T06:45:51.838Z,9.63
2018-08-18T06:50:45.644Z,10.00
2018-08-18T06:55:39.893Z,9.30
2018-08-18T07:00:34.083Z,10.33
2018-08-18T07:05:28.538Z,10.40
2018-08-18T07:10:38.792Z,9.17
2018-08-18T07:15:33.910Z,9.83
2018-08-18T07:20:28.499Z,11.53
2018-08-18T07:25:22.599Z,10.27
2018-08-18T07:30:16.810Z,10.30
2018-08-18T07:35:11.464Z,9.80
2018-08-18T07:40:07.461Z,8.43
2018-08-18T07:45:02.728Z,10.63
2018-08-18T07:49:57.220Z,9.73
2018-08-18T07:54:51.493Z,10.00
2018-08-18T07:59:45.430Z,10.23
2018-08-18T08:04:41.382Z,8.30
2018-08-18T08:09:35.576Z,8.23
2018-08-18T08:14:29.520Z,8.10
2018-08-18T08:19:23.517Z,8.20
2018-08-18T08:24:19.073Z,7.93
2018-08-18T08:29:22.035Z,7.47
2018-08-18T08:34:24.695Z,7.07
2018-08-18T08:39:41.351Z,7.27
2018-08-18T08:44:58.765Z,6.87
2018-08-18T08:50:08.676Z,6.33
2018-08-18T08:55:04.544Z,6.67
2018-08-18T08:59:59.029Z,6.10
2018-08-18T09:04:53.140Z,5.93
2018-08-18T09:09:47.370Z,6.73
2018-08-18T09:14:42.040Z,6.93
2018-08-18T09:19:37.225Z,4.90
2018-08-18T09:24:32.788Z,5.57
2018-08-18T09:29:32.643Z,5.93
2018-08-18T09:34:28.575Z,5.30
2018-08-18T09:39:28.360Z,5.10
2018-08-18T09:44:27.366Z,5.50
2018-08-18T09:49:21.492Z,5.23
2018-08-18T09:54:16.077Z,5.13
2018-08-18T09:59:11.093Z,5.00
2018-08-18T10:04:07.418Z,4.27
2018-08-18T10:09:03.215Z,5.53
2018-08-18T10:14:04.907Z,5.73
2018-08-18T10:19:00.199Z,5.70
2018-08-18T10:23:54.448Z,5.37
2018-08-18T10:28:48.402Z,4.73
2018-08-18T10:33:43.007Z,5.20
2018-08-18T10:38:37.698Z,4.83
2018-08-18T10:43:32.519Z,4.23
2018-08-18T10:48:27.591Z,3.80
2018-08-18T10:53:21.673Z,3.97
2018-08-18T10:58:28.878Z,4.27
2018-08-18T11:03:23.881Z,4.37
2018-08-18T11:08:18.056Z,4.37
2018-08-18T11:13:12.039Z,3.60
2018-08-18T11:18:08.696Z,3.90
2018-08-18T11:23:04.982Z,5.27
2018-08-18T11:27:59.890Z,5.57
2018-08-18T11:32:54.518Z,5.50
2018-08-18T11:37:55.398Z,5.47
2018-08-18T11:42:50.147Z,5.67
2018-08-18T11:47:48.772Z,6.13
2018-08-18T11:52:47.188Z,5.93
2018-08-18T11:57:41.648Z,5.67
2018-08-18T12:02:37.110Z,4.77
2018-08-18T12:07:32.600Z,4.77
2018-08-18T12:12:32.809Z,5.80
2018-08-18T12:17:27.169Z,5.47
2018-08-18T12:22:23.203Z,6.03
2018-08-18T12:27:17.361Z,6.13
2018-08-18T12:32:21.412Z,6.00
2018-08-18T12:37:15.682Z,5.20
2018-08-18T12:42:11.975Z,4.73
2018-08-18T12:47:07.673Z,5.13
2018-08-18T12:52:04.922Z,6.07
2018-08-18T12:56:58.921Z,6.47
2018-08-18T13:01:54.405Z,5.13
2018-08-18T13:07:07.364Z,4.90
2018-08-18T13:12:16.807Z,4.50
2018-08-18T13:17:11.914Z,5.63
2018-08-18T13:22:16.016Z,6.00
2018-08-18T13:27:10.401Z,4.80
2018-08-18T13:32:05.424Z,5.10
2018-08-18T13:37:00.977Z,4.40
2018-08-18T13:41:54.853Z,5.10
2018-08-18T13:46:52.013Z,4.70
2018-08-18T13:51:46.573Z,4.63
2018-08-18T13:56:40.792Z,4.70
2018-08-18T14:01:37.505Z,5.07
2018-08-18T14:06:45.354Z,5.53
2018-08-18T14:11:48.531Z,6.20
2018-08-18T14:16:49.561Z,4.80
2018-08-18T14:21:44.213Z,4.50
2018-08-18T14:26:41.922Z,4.60
2018-08-18T14:31:36.289Z,4.17
2018-08-18T14:36:30.258Z,5.03
2018-08-18T14:41:39.884Z,4.10
2018-08-18T14:46:35.049Z,4.70
2018-08-18T14:51:29.449Z,4.60
2018-08-18T14:56:23.653Z,4.43
2018-08-18T15:01:17.758Z,4.50
2018-08-18T15:06:12.875Z,5.10
2018-08-18T15:11:07.059Z,7.57
2018-08-18T15:16:02.433Z,5.17
2018-08-18T15:21:04.262Z,18.83
2018-08-18T15:25:58.796Z,5.67
2018-08-18T15:30:54.453Z,5.03
2018-08-18T15:35:48.869Z,4.60
2018-08-18T15:40:43.088Z,4.90
2018-08-18T15:46:04.713Z,7.47
2018-08-18T15:50:58.471Z,4.80
2018-08-18T15:55:53.912Z,4.03
2018-08-18T16:00:50.040Z,5.77
2018-08-18T16:05:44.189Z,4.17
2018-08-18T16:10:39.308Z,4.90
2018-08-18T16:15:33.809Z,9.37
2018-08-18T16:20:27.860Z,7.00
2018-08-18T16:25:40.719Z,6.20
2018-08-18T16:30:36.319Z,5.27
2018-08-18T16:35:30.228Z,5.57
2018-08-18T16:40:24.719Z,5.30
2018-08-18T16:45:18.902Z,4.77
2018-08-18T16:50:13.283Z,6.17
2018-08-18T16:55:07.804Z,4.50
2018-08-18T17:00:03.442Z,4.07
2018-08-18T17:04:57.882Z,9.10
2018-08-18T17:09:53.398Z,7.27
2018-08-18T17:14:48.493Z,4.17
2018-08-18T17:19:43.978Z,8.73
2018-08-18T17:24:37.965Z,4.83
2018-08-18T17:29:35.820Z,10.57
2018-08-18T17:34:44.559Z,6.27
2018-08-18T17:39:38.966Z,9.70
2018-08-18T17:44:34.084Z,6.90
2018-08-18T17:49:29.280Z,4.83
2018-08-18T17:54:24.586Z,4.00
2018-08-18T17:59:20.385Z,7.70
2018-08-18T18:04:14.893Z,5.57
2018-08-18T18:09:09.919Z,5.77
2018-08-18T18:14:05.091Z,5.77
2018-08-18T18:19:00.372Z,6.17
2018-08-18T18:23:54.697Z,8.60
2018-08-18T18:28:48.798Z,6.67
2018-08-18T18:33:54.573Z,6.40
2018-08-18T18:39:03.016Z,5.53
2018-08-18T18:44:21.603Z,3.73
2018-08-18T18:49:28.383Z,4.70
2018-08-18T18:54:22.878Z,4.53
2018-08-18T18:59:17.060Z,5.20
2018-08-18T19:04:11.239Z,13.37
2018-08-18T19:09:07.372Z,13.47
2018-08-18T19:14:01.792Z,24.23
2018-08-18T19:18:57.122Z,63.87
2018-08-18T19:23:51.299Z,23.53
2018-08-18T19:28:45.176Z,176.43
2018-08-18T19:33:39.676Z,120.80
2018-08-18T19:38:34.207Z,93.03
2018-08-18T19:43:28.612Z,74.10
2018-08-18T19:48:23.769Z,22.43
2018-08-18T19:53:18.986Z,10.47
2018-08-18T19:58:13.580Z,7.63
2018-08-18T20:03:10.393Z,6.30
2018-08-18T20:08:05.121Z,6.73
2018-08-18T20:13:00.387Z,6.77
2018-08-18T20:17:55.174Z,8.47
2018-08-18T20:22:49.456Z,8.90
2018-08-18T20:27:43.763Z,7.47
2018-08-18T20:32:37.697Z,6.90
2018-08-18T20:37:32.671Z,7.20
2018-08-18T20:42:31.918Z,7.80
2018-08-18T20:47:30.153Z,7.93
2018-08-18T20:52:25.037Z,7.77
2018-08-18T20:57:19.875Z,8.67
2018-08-18T21:02:15.023Z,11.50
2018-08-18T21:07:09.392Z,8.60
2018-08-18T21:12:05.491Z,8.60
2018-08-18T21:16:59.733Z,9.80
2018-08-18T21:21:54.481Z,9.70
2018-08-18T21:26:52.485Z,9.73
2018-08-18T21:31:55.100Z,10.93
2018-08-18T21:36:53.646Z,10.50
2018-08-18T21:41:50.919Z,10.23
2018-08-18T21:46:53.906Z,10.77
2018-08-18T21:51:52.656Z,9.93
2018-08-18T21:56:48.966Z,11.07
2018-08-18T22:01:45.641Z,10.70
2018-08-18T22:06:42.095Z,9.77
2018-08-18T22:11:42.545Z,10.60
2018-08-18T22:16:44.108Z,10.67
2018-08-18T22:21:38.248Z,11.00
2018-08-18T22:26:34.644Z,10.67
2018-08-18T22:31:30.236Z,10.37
2018-08-18T22:36:25.664Z,10.63
2018-08-18T22:41:19.617Z,11.27
2018-08-18T22:46:15.349Z,11.57
2018-08-18T22:51:09.877Z,11.30
2018-08-18T22:56:05.752Z,11.03
2018-08-18T23:00:59.477Z,10.90
2018-08-18T23:06:01.830Z,11.57
2018-08-18T23:10:56.335Z,11.83
2018-08-18T23:15:50.369Z,11.97
2018-08-18T23:20:44.735Z,12.90
2018-08-18T23:25:38.880Z,12.70
2018-08-18T23:30:37.660Z,11.97
2018-08-18T23:35:32.973Z,13.83
2018-08-18T23:40:27.582Z,14.13
2018-08-18T23:45:21.808Z,12.70
2018-08-18T23:50:15.762Z,13.13
2018-08-18T23:55:09.798Z,12.77
